sensor_id;sensor_type;location;lat;lon;timestamp;P1;durP1;ratioP1;P2;durP2;ratioP2
21162;SDS011;10739;52.198;20.908;2023-06-26T00:00:57;9.93;;;6.75;;
21162;SDS011;10739;52.198;20.908;2023-06-26T00:03:23;11.60;;;7.13;;
21162;SDS011;10739;52.198;20.908;2023-06-26T00:05:50;13.73;;;7.00;;
21162;SDS011;10739;52.198;20.908;2023-06-26T00:08:16;10.95;;;6.90;;
21162;SDS011;10739;52.198;20.908;2023-06-26T00:10:42;9.98;;;6.85;;
21162;SDS011;10739;52.198;20.908;2023-06-26T00:13:08;13.57;;;7.00;;
21162;SDS011;10739;52.198;20.908;2023-06-26T00:15:37;14.23;;;7.47;;
21162;SDS011;10739;52.198;20.908;2023-06-26T00:18:03;12.02;;;7.60;;
21162;SDS011;10739;52.198;20.908;2023-06-26T00:20:30;11.80;;;6.88;;
21162;SDS011;10739;52.198;20.908;2023-06-26T00:22:59;13.38;;;7.65;;
21162;SDS011;10739;52.198;20.908;2023-06-26T00:25:26;12.27;;;7.50;;
21162;SDS011;10739;52.198;20.908;2023-06-26T00:27:52;19.55;;;7.82;;
21162;SDS011;10739;52.198;20.908;2023-06-26T00:30:18;17.27;;;7.65;;
21162;SDS011;10739;52.198;20.908;2023-06-26T00:32:44;16.45;;;7.55;;
21162;SDS011;10739;52.198;20.908;2023-06-26T00:35:11;18.20;;;7.85;;
21162;SDS011;10739;52.198;20.908;2023-06-26T00:37:37;17.83;;;7.00;;
21162;SDS011;10739;52.198;20.908;2023-06-26T00:40:03;16.00;;;7.78;;
21162;SDS011;10739;52.198;20.908;2023-06-26T00:42:31;18.98;;;7.53;;
21162;SDS011;10739;52.198;20.908;2023-06-26T00:44:57;14.60;;;8.30;;
21162;SDS011;10739;52.198;20.908;2023-06-26T00:47:23;15.98;;;7.68;;
21162;SDS011;10739;52.198;20.908;2023-06-26T00:49:51;14.18;;;7.43;;
21162;SDS011;10739;52.198;20.908;2023-06-26T00:52:17;11.60;;;6.75;;
21162;SDS011;10739;52.198;20.908;2023-06-26T00:54:45;17.02;;;7.88;;
21162;SDS011;10739;52.198;20.908;2023-06-26T00:57:12;13.30;;;7.45;;
21162;SDS011;10739;52.198;20.908;2023-06-26T00:59:38;15.48;;;7.63;;
21162;SDS011;10739;52.198;20.908;2023-06-26T01:02:05;13.20;;;7.57;;
21162;SDS011;10739;52.198;20.908;2023-06-26T01:04:34;16.00;;;7.38;;
21162;SDS011;10739;52.198;20.908;2023-06-26T01:07:02;11.75;;;6.97;;
21162;SDS011;10739;52.198;20.908;2023-06-26T01:09:29;11.00;;;7.45;;
21162;SDS011;10739;52.198;20.908;2023-06-26T01:11:57;12.65;;;7.20;;
21162;SDS011;10739;52.198;20.908;2023-06-26T01:14:25;14.77;;;7.30;;
21162;SDS011;10739;52.198;20.908;2023-06-26T01:16:51;13.48;;;7.35;;
21162;SDS011;10739;52.198;20.908;2023-06-26T01:19:26;11.10;;;7.70;;
21162;SDS011;10739;52.198;20.908;2023-06-26T01:22:38;12.23;;;7.65;;
21162;SDS011;10739;52.198;20.908;2023-06-26T01:25:05;12.93;;;7.95;;
21162;SDS011;10739;52.198;20.908;2023-06-26T01:27:49;12.38;;;7.55;;
21162;SDS011;10739;52.198;20.908;2023-06-26T01:30:18;12.68;;;7.90;;
21162;SDS011;10739;52.198;20.908;2023-06-26T01:32:47;15.63;;;7.70;;
21162;SDS011;10739;52.198;20.908;2023-06-26T01:35:15;13.75;;;8.10;;
21162;SDS011;10739;52.198;20.908;2023-06-26T01:37:42;14.52;;;7.47;;
21162;SDS011;10739;52.198;20.908;2023-06-26T01:40:08;10.68;;;7.47;;
21162;SDS011;10739;52.198;20.908;2023-06-26T01:42:35;12.52;;;7.97;;
21162;SDS011;10739;52.198;20.908;2023-06-26T01:45:24;11.52;;;7.15;;
21162;SDS011;10739;52.198;20.908;2023-06-26T01:47:52;11.77;;;8.27;;
21162;SDS011;10739;52.198;20.908;2023-06-26T01:50:24;17.60;;;7.57;;
21162;SDS011;10739;52.198;20.908;2023-06-26T01:53:02;12.43;;;7.72;;
21162;SDS011;10739;52.198;20.908;2023-06-26T01:55:41;13.30;;;8.23;;
21162;SDS011;10739;52.198;20.908;2023-06-26T01:58:22;12.98;;;8.35;;
21162;SDS011;10739;52.198;20.908;2023-06-26T02:00:51;14.25;;;8.20;;
21162;SDS011;10739;52.198;20.908;2023-06-26T02:03:18;14.13;;;7.60;;
21162;SDS011;10739;52.198;20.908;2023-06-26T02:05:45;16.65;;;8.02;;
21162;SDS011;10739;52.198;20.908;2023-06-26T02:08:13;10.20;;;8.48;;
21162;SDS011;10739;52.198;20.908;2023-06-26T02:10:40;14.10;;;8.85;;
21162;SDS011;10739;52.198;20.908;2023-06-26T02:13:06;13.48;;;8.32;;
21162;SDS011;10739;52.198;20.908;2023-06-26T02:15:32;9.18;;;7.97;;
21162;SDS011;10739;52.198;20.908;2023-06-26T02:17:59;12.50;;;8.60;;
21162;SDS011;10739;52.198;20.908;2023-06-26T02:20:25;13.88;;;8.13;;
21162;SDS011;10739;52.198;20.908;2023-06-26T02:22:51;14.45;;;9.00;;
21162;SDS011;10739;52.198;20.908;2023-06-26T02:25:17;11.82;;;8.23;;
21162;SDS011;10739;52.198;20.908;2023-06-26T02:27:44;15.80;;;9.10;;
21162;SDS011;10739;52.198;20.908;2023-06-26T02:30:10;12.45;;;8.93;;
21162;SDS011;10739;52.198;20.908;2023-06-26T02:32:36;11.32;;;8.93;;
21162;SDS011;10739;52.198;20.908;2023-06-26T02:35:02;12.25;;;8.63;;
21162;SDS011;10739;52.198;20.908;2023-06-26T02:37:29;12.15;;;8.95;;
21162;SDS011;10739;52.198;20.908;2023-06-26T02:39:55;11.07;;;8.38;;
21162;SDS011;10739;52.198;20.908;2023-06-26T02:42:21;10.00;;;8.05;;
21162;SDS011;10739;52.198;20.908;2023-06-26T02:44:47;12.70;;;8.57;;
21162;SDS011;10739;52.198;20.908;2023-06-26T02:47:13;12.30;;;8.43;;
21162;SDS011;10739;52.198;20.908;2023-06-26T02:49:40;10.60;;;8.20;;
21162;SDS011;10739;52.198;20.908;2023-06-26T02:52:06;14.35;;;8.40;;
21162;SDS011;10739;52.198;20.908;2023-06-26T02:54:32;11.60;;;8.55;;
21162;SDS011;10739;52.198;20.908;2023-06-26T02:56:58;10.82;;;8.60;;
21162;SDS011;10739;52.198;20.908;2023-06-26T02:59:25;14.85;;;8.85;;
21162;SDS011;10739;52.198;20.908;2023-06-26T03:01:51;17.45;;;9.10;;
21162;SDS011;10739;52.198;20.908;2023-06-26T03:04:17;10.00;;;8.75;;
21162;SDS011;10739;52.198;20.908;2023-06-26T03:06:46;10.32;;;8.10;;
21162;SDS011;10739;52.198;20.908;2023-06-26T03:09:12;14.93;;;9.07;;
21162;SDS011;10739;52.198;20.908;2023-06-26T03:11:38;15.38;;;9.20;;
21162;SDS011;10739;52.198;20.908;2023-06-26T03:14:04;14.77;;;8.73;;
21162;SDS011;10739;52.198;20.908;2023-06-26T03:16:30;18.95;;;9.52;;
21162;SDS011;10739;52.198;20.908;2023-06-26T03:18:56;18.27;;;9.13;;
21162;SDS011;10739;52.198;20.908;2023-06-26T03:21:22;15.50;;;10.43;;
21162;SDS011;10739;52.198;20.908;2023-06-26T03:23:48;16.13;;;10.55;;
21162;SDS011;10739;52.198;20.908;2023-06-26T03:26:15;16.10;;;9.63;;
21162;SDS011;10739;52.198;20.908;2023-06-26T03:28:41;14.82;;;9.77;;
21162;SDS011;10739;52.198;20.908;2023-06-26T03:31:07;15.43;;;10.13;;
21162;SDS011;10739;52.198;20.908;2023-06-26T03:33:34;21.17;;;10.45;;
21162;SDS011;10739;52.198;20.908;2023-06-26T03:36:00;14.25;;;9.45;;
21162;SDS011;10739;52.198;20.908;2023-06-26T03:38:26;16.08;;;10.05;;
21162;SDS011;10739;52.198;20.908;2023-06-26T03:40:52;15.98;;;10.02;;
21162;SDS011;10739;52.198;20.908;2023-06-26T03:43:18;19.60;;;10.80;;
21162;SDS011;10739;52.198;20.908;2023-06-26T03:45:44;13.35;;;9.88;;
21162;SDS011;10739;52.198;20.908;2023-06-26T03:48:11;15.00;;;10.15;;
21162;SDS011;10739;52.198;20.908;2023-06-26T03:50:40;13.55;;;10.15;;
21162;SDS011;10739;52.198;20.908;2023-06-26T03:53:06;11.65;;;9.82;;
21162;SDS011;10739;52.198;20.908;2023-06-26T03:55:32;13.15;;;10.43;;
21162;SDS011;10739;52.198;20.908;2023-06-26T03:57:59;15.25;;;10.15;;
21162;SDS011;10739;52.198;20.908;2023-06-26T04:00:25;17.45;;;10.93;;
21162;SDS011;10739;52.198;20.908;2023-06-26T04:02:52;19.20;;;10.20;;
21162;SDS011;10739;52.198;20.908;2023-06-26T04:05:18;15.98;;;10.45;;
21162;SDS011;10739;52.198;20.908;2023-06-26T04:07:44;17.90;;;10.43;;
21162;SDS011;10739;52.198;20.908;2023-06-26T04:10:10;16.65;;;10.73;;
21162;SDS011;10739;52.198;20.908;2023-06-26T04:12:36;17.02;;;10.73;;
21162;SDS011;10739;52.198;20.908;2023-06-26T04:15:02;17.67;;;10.82;;
21162;SDS011;10739;52.198;20.908;2023-06-26T04:17:31;13.50;;;10.43;;
21162;SDS011;10739;52.198;20.908;2023-06-26T04:19:57;19.05;;;10.73;;
21162;SDS011;10739;52.198;20.908;2023-06-26T04:22:23;15.73;;;10.63;;
21162;SDS011;10739;52.198;20.908;2023-06-26T04:24:51;17.15;;;10.70;;
21162;SDS011;10739;52.198;20.908;2023-06-26T04:27:17;17.20;;;10.48;;
21162;SDS011;10739;52.198;20.908;2023-06-26T04:29:44;16.30;;;10.45;;
21162;SDS011;10739;52.198;20.908;2023-06-26T04:32:11;16.52;;;10.35;;
21162;SDS011;10739;52.198;20.908;2023-06-26T04:34:37;14.73;;;10.40;;
21162;SDS011;10739;52.198;20.908;2023-06-26T04:37:06;16.13;;;9.93;;
21162;SDS011;10739;52.198;20.908;2023-06-26T04:39:32;14.10;;;9.77;;
21162;SDS011;10739;52.198;20.908;2023-06-26T04:41:59;16.95;;;10.55;;
21162;SDS011;10739;52.198;20.908;2023-06-26T04:44:25;21.13;;;10.25;;
21162;SDS011;10739;52.198;20.908;2023-06-26T04:46:50;21.65;;;10.82;;
21162;SDS011;10739;52.198;20.908;2023-06-26T04:49:17;16.95;;;10.63;;
21162;SDS011;10739;52.198;20.908;2023-06-26T04:51:44;19.48;;;10.40;;
21162;SDS011;10739;52.198;20.908;2023-06-26T04:54:10;15.43;;;9.10;;
21162;SDS011;10739;52.198;20.908;2023-06-26T04:56:37;20.83;;;10.55;;
21162;SDS011;10739;52.198;20.908;2023-06-26T04:59:05;18.80;;;9.27;;
21162;SDS011;10739;52.198;20.908;2023-06-26T05:01:31;19.88;;;9.50;;
21162;SDS011;10739;52.198;20.908;2023-06-26T05:03:58;20.48;;;10.77;;
21162;SDS011;10739;52.198;20.908;2023-06-26T05:06:24;17.02;;;9.88;;
21162;SDS011;10739;52.198;20.908;2023-06-26T05:08:50;24.73;;;10.60;;
21162;SDS011;10739;52.198;20.908;2023-06-26T05:11:16;16.23;;;9.80;;
21162;SDS011;10739;52.198;20.908;2023-06-26T05:13:43;17.63;;;9.13;;
21162;SDS011;10739;52.198;20.908;2023-06-26T05:16:09;15.30;;;9.07;;
21162;SDS011;10739;52.198;20.908;2023-06-26T05:18:35;16.17;;;8.93;;
21162;SDS011;10739;52.198;20.908;2023-06-26T05:21:02;24.10;;;9.98;;
21162;SDS011;10739;52.198;20.908;2023-06-26T05:23:32;28.88;;;10.68;;
21162;SDS011;10739;52.198;20.908;2023-06-26T05:26:02;25.98;;;10.73;;
21162;SDS011;10739;52.198;20.908;2023-06-26T05:28:29;18.90;;;9.52;;
21162;SDS011;10739;52.198;20.908;2023-06-26T05:30:59;23.85;;;10.23;;
21162;SDS011;10739;52.198;20.908;2023-06-26T05:33:26;22.15;;;10.60;;
21162;SDS011;10739;52.198;20.908;2023-06-26T05:35:53;23.15;;;10.18;;
21162;SDS011;10739;52.198;20.908;2023-06-26T05:38:21;25.17;;;10.65;;
21162;SDS011;10739;52.198;20.908;2023-06-26T05:40:47;32.05;;;9.75;;
21162;SDS011;10739;52.198;20.908;2023-06-26T05:43:14;30.38;;;9.27;;
21162;SDS011;10739;52.198;20.908;2023-06-26T05:45:41;33.05;;;9.60;;
21162;SDS011;10739;52.198;20.908;2023-06-26T05:48:07;28.55;;;9.70;;
21162;SDS011;10739;52.198;20.908;2023-06-26T05:50:33;22.10;;;9.85;;
21162;SDS011;10739;52.198;20.908;2023-06-26T05:53:01;21.08;;;8.77;;
21162;SDS011;10739;52.198;20.908;2023-06-26T05:55:28;23.27;;;7.97;;
21162;SDS011;10739;52.198;20.908;2023-06-26T05:57:55;23.77;;;8.80;;
21162;SDS011;10739;52.198;20.908;2023-06-26T06:00:25;19.88;;;8.50;;
21162;SDS011;10739;52.198;20.908;2023-06-26T06:02:52;24.50;;;7.28;;
21162;SDS011;10739;52.198;20.908;2023-06-26T06:05:22;13.85;;;7.35;;
21162;SDS011;10739;52.198;20.908;2023-06-26T06:07:48;16.05;;;7.07;;
21162;SDS011;10739;52.198;20.908;2023-06-26T06:10:15;13.88;;;6.40;;
21162;SDS011;10739;52.198;20.908;2023-06-26T06:12:42;18.48;;;7.88;;
21162;SDS011;10739;52.198;20.908;2023-06-26T06:15:08;24.08;;;7.82;;
21162;SDS011;10739;52.198;20.908;2023-06-26T06:17:34;20.30;;;8.48;;
21162;SDS011;10739;52.198;20.908;2023-06-26T06:20:00;23.65;;;7.95;;
21162;SDS011;10739;52.198;20.908;2023-06-26T06:22:27;29.63;;;8.77;;
21162;SDS011;10739;52.198;20.908;2023-06-26T06:24:53;23.25;;;8.73;;
21162;SDS011;10739;52.198;20.908;2023-06-26T06:27:19;25.10;;;7.97;;
21162;SDS011;10739;52.198;20.908;2023-06-26T06:29:46;32.78;;;8.02;;
21162;SDS011;10739;52.198;20.908;2023-06-26T06:32:12;16.17;;;6.78;;
21162;SDS011;10739;52.198;20.908;2023-06-26T06:34:38;12.63;;;7.15;;
21162;SDS011;10739;52.198;20.908;2023-06-26T06:37:04;21.88;;;7.20;;
21162;SDS011;10739;52.198;20.908;2023-06-26T06:39:30;27.27;;;7.53;;
21162;SDS011;10739;52.198;20.908;2023-06-26T06:41:57;12.13;;;7.10;;
21162;SDS011;10739;52.198;20.908;2023-06-26T06:44:23;14.63;;;6.20;;
21162;SDS011;10739;52.198;20.908;2023-06-26T06:46:49;19.73;;;6.75;;
21162;SDS011;10739;52.198;20.908;2023-06-26T06:49:15;8.02;;;5.60;;
21162;SDS011;10739;52.198;20.908;2023-06-26T06:51:42;14.52;;;6.22;;
21162;SDS011;10739;52.198;20.908;2023-06-26T06:54:08;8.85;;;5.05;;
21162;SDS011;10739;52.198;20.908;2023-06-26T06:56:34;11.38;;;5.07;;
21162;SDS011;10739;52.198;20.908;2023-06-26T06:59:00;5.15;;;4.65;;
21162;SDS011;10739;52.198;20.908;2023-06-26T07:01:27;14.82;;;6.05;;
21162;SDS011;10739;52.198;20.908;2023-06-26T07:03:53;13.00;;;6.22;;
21162;SDS011;10739;52.198;20.908;2023-06-26T07:06:19;8.48;;;4.85;;
21162;SDS011;10739;52.198;20.908;2023-06-26T07:08:45;6.38;;;4.68;;
21162;SDS011;10739;52.198;20.908;2023-06-26T07:11:11;9.23;;;5.40;;
21162;SDS011;10739;52.198;20.908;2023-06-26T07:13:37;9.93;;;5.25;;
21162;SDS011;10739;52.198;20.908;2023-06-26T07:16:04;8.23;;;5.00;;
21162;SDS011;10739;52.198;20.908;2023-06-26T07:18:30;6.93;;;4.35;;
21162;SDS011;10739;52.198;20.908;2023-06-26T07:20:56;5.65;;;4.93;;
21162;SDS011;10739;52.198;20.908;2023-06-26T07:23:23;9.10;;;4.50;;
21162;SDS011;10739;52.198;20.908;2023-06-26T07:25:49;7.35;;;4.40;;
21162;SDS011;10739;52.198;20.908;2023-06-26T07:28:15;12.75;;;5.25;;
21162;SDS011;10739;52.198;20.908;2023-06-26T07:30:41;5.78;;;4.60;;
21162;SDS011;10739;52.198;20.908;2023-06-26T07:33:07;5.25;;;4.45;;
21162;SDS011;10739;52.198;20.908;2023-06-26T07:35:33;6.63;;;4.78;;
21162;SDS011;10739;52.198;20.908;2023-06-26T07:37:59;7.82;;;4.70;;
21162;SDS011;10739;52.198;20.908;2023-06-26T07:40:26;10.73;;;5.13;;
21162;SDS011;10739;52.198;20.908;2023-06-26T07:42:52;8.63;;;4.93;;
21162;SDS011;10739;52.198;20.908;2023-06-26T07:45:19;7.13;;;4.50;;
21162;SDS011;10739;52.198;20.908;2023-06-26T07:47:45;9.23;;;4.47;;
21162;SDS011;10739;52.198;20.908;2023-06-26T07:50:11;8.60;;;4.80;;
21162;SDS011;10739;52.198;20.908;2023-06-26T07:52:41;7.97;;;5.10;;
21162;SDS011;10739;52.198;20.908;2023-06-26T07:55:07;6.25;;;5.43;;
21162;SDS011;10739;52.198;20.908;2023-06-26T07:57:33;9.25;;;4.82;;
21162;SDS011;10739;52.198;20.908;2023-06-26T07:59:59;12.13;;;5.30;;
21162;SDS011;10739;52.198;20.908;2023-06-26T08:02:26;10.18;;;4.95;;
21162;SDS011;10739;52.198;20.908;2023-06-26T08:04:52;9.10;;;4.80;;
21162;SDS011;10739;52.198;20.908;2023-06-26T08:07:18;6.65;;;5.18;;
21162;SDS011;10739;52.198;20.908;2023-06-26T08:09:44;8.98;;;5.00;;
21162;SDS011;10739;52.198;20.908;2023-06-26T08:12:10;10.85;;;7.50;;
21162;SDS011;10739;52.198;20.908;2023-06-26T08:14:36;8.65;;;4.63;;
21162;SDS011;10739;52.198;20.908;2023-06-26T08:17:03;11.57;;;4.75;;
21162;SDS011;10739;52.198;20.908;2023-06-26T08:19:29;7.35;;;5.20;;
21162;SDS011;10739;52.198;20.908;2023-06-26T08:21:55;11.23;;;5.57;;
21162;SDS011;10739;52.198;20.908;2023-06-26T08:24:22;6.53;;;4.82;;
21162;SDS011;10739;52.198;20.908;2023-06-26T08:26:48;8.60;;;4.72;;
21162;SDS011;10739;52.198;20.908;2023-06-26T08:29:14;7.90;;;4.68;;
21162;SDS011;10739;52.198;20.908;2023-06-26T08:31:42;7.85;;;4.80;;
21162;SDS011;10739;52.198;20.908;2023-06-26T08:34:09;6.82;;;4.82;;
21162;SDS011;10739;52.198;20.908;2023-06-26T08:36:38;5.57;;;4.70;;
21162;SDS011;10739;52.198;20.908;2023-06-26T08:39:04;8.43;;;5.03;;
21162;SDS011;10739;52.198;20.908;2023-06-26T08:41:31;6.05;;;4.32;;
21162;SDS011;10739;52.198;20.908;2023-06-26T08:43:57;5.55;;;4.43;;
21162;SDS011;10739;52.198;20.908;2023-06-26T08:46:23;5.05;;;4.25;;
21162;SDS011;10739;52.198;20.908;2023-06-26T08:48:58;7.65;;;4.75;;
21162;SDS011;10739;52.198;20.908;2023-06-26T08:51:50;8.00;;;4.65;;
21162;SDS011;10739;52.198;20.908;2023-06-26T08:54:26;4.90;;;4.03;;
21162;SDS011;10739;52.198;20.908;2023-06-26T08:57:00;6.65;;;4.13;;
21162;SDS011;10739;52.198;20.908;2023-06-26T08:59:27;4.63;;;4.15;;
21162;SDS011;10739;52.198;20.908;2023-06-26T09:01:54;11.00;;;4.68;;
21162;SDS011;10739;52.198;20.908;2023-06-26T09:04:21;5.13;;;3.58;;
21162;SDS011;10739;52.198;20.908;2023-06-26T09:06:47;5.15;;;3.70;;
21162;SDS011;10739;52.198;20.908;2023-06-26T09:09:13;8.23;;;4.78;;
21162;SDS011;10739;52.198;20.908;2023-06-26T09:11:40;4.55;;;3.90;;
21162;SDS011;10739;52.198;20.908;2023-06-26T09:14:07;6.72;;;4.28;;
21162;SDS011;10739;52.198;20.908;2023-06-26T09:16:45;6.05;;;4.15;;
21162;SDS011;10739;52.198;20.908;2023-06-26T09:19:12;6.07;;;4.75;;
21162;SDS011;10739;52.198;20.908;2023-06-26T09:21:42;8.30;;;4.28;;
21162;SDS011;10739;52.198;20.908;2023-06-26T09:24:10;5.78;;;4.35;;
21162;SDS011;10739;52.198;20.908;2023-06-26T09:26:39;7.03;;;4.18;;
21162;SDS011;10739;52.198;20.908;2023-06-26T09:29:06;5.82;;;4.38;;
21162;SDS011;10739;52.198;20.908;2023-06-26T09:31:33;5.75;;;4.22;;
21162;SDS011;10739;52.198;20.908;2023-06-26T09:34:02;6.00;;;4.40;;
21162;SDS011;10739;52.198;20.908;2023-06-26T09:36:29;8.10;;;4.72;;
21162;SDS011;10739;52.198;20.908;2023-06-26T09:39:05;6.55;;;4.38;;
21162;SDS011;10739;52.198;20.908;2023-06-26T09:41:40;7.32;;;4.15;;
21162;SDS011;10739;52.198;20.908;2023-06-26T09:44:10;7.57;;;4.80;;
21162;SDS011;10739;52.198;20.908;2023-06-26T09:46:39;10.15;;;4.35;;
21162;SDS011;10739;52.198;20.908;2023-06-26T09:51:37;4.57;;;4.07;;
21162;SDS011;10739;52.198;20.908;2023-06-26T09:54:06;5.28;;;4.28;;
21162;SDS011;10739;52.198;20.908;2023-06-26T09:56:33;6.88;;;4.38;;
21162;SDS011;10739;52.198;20.908;2023-06-26T09:59:02;11.30;;;4.78;;
21162;SDS011;10739;52.198;20.908;2023-06-26T10:01:31;6.35;;;4.38;;
21162;SDS011;10739;52.198;20.908;2023-06-26T10:03:58;6.18;;;4.40;;
21162;SDS011;10739;52.198;20.908;2023-06-26T10:06:27;7.78;;;4.47;;
21162;SDS011;10739;52.198;20.908;2023-06-26T10:08:58;4.78;;;4.03;;
21162;SDS011;10739;52.198;20.908;2023-06-26T10:11:32;6.03;;;3.53;;
21162;SDS011;10739;52.198;20.908;2023-06-26T10:14:22;5.28;;;4.05;;
21162;SDS011;10739;52.198;20.908;2023-06-26T10:16:57;4.63;;;3.92;;
21162;SDS011;10739;52.198;20.908;2023-06-26T10:19:26;6.63;;;3.78;;
21162;SDS011;10739;52.198;20.908;2023-06-26T10:21:54;4.57;;;4.00;;
21162;SDS011;10739;52.198;20.908;2023-06-26T10:24:22;5.60;;;3.83;;
21162;SDS011;10739;52.198;20.908;2023-06-26T10:26:52;5.88;;;4.05;;
21162;SDS011;10739;52.198;20.908;2023-06-26T10:29:24;6.43;;;4.55;;
21162;SDS011;10739;52.198;20.908;2023-06-26T10:31:52;4.43;;;4.03;;
21162;SDS011;10739;52.198;20.908;2023-06-26T10:34:25;8.90;;;4.10;;
21162;SDS011;10739;52.198;20.908;2023-06-26T10:36:58;5.55;;;3.58;;
21162;SDS011;10739;52.198;20.908;2023-06-26T10:39:26;6.45;;;4.05;;
21162;SDS011;10739;52.198;20.908;2023-06-26T10:41:55;4.30;;;3.67;;
21162;SDS011;10739;52.198;20.908;2023-06-26T10:44:42;6.18;;;3.97;;
21162;SDS011;10739;52.198;20.908;2023-06-26T10:47:12;5.65;;;3.72;;
21162;SDS011;10739;52.198;20.908;2023-06-26T10:49:55;5.10;;;3.70;;
21162;SDS011;10739;52.198;20.908;2023-06-26T10:52:22;6.63;;;4.00;;
21162;SDS011;10739;52.198;20.908;2023-06-26T10:54:54;3.90;;;3.40;;
21162;SDS011;10739;52.198;20.908;2023-06-26T10:57:23;6.13;;;3.55;;
21162;SDS011;10739;52.198;20.908;2023-06-26T11:00:07;4.47;;;3.40;;
21162;SDS011;10739;52.198;20.908;2023-06-26T11:02:51;5.00;;;3.50;;
21162;SDS011;10739;52.198;20.908;2023-06-26T11:05:32;8.00;;;4.20;;
21162;SDS011;10739;52.198;20.908;2023-06-26T11:08:08;4.97;;;3.28;;
21162;SDS011;10739;52.198;20.908;2023-06-26T11:10:53;7.28;;;3.75;;
21162;SDS011;10739;52.198;20.908;2023-06-26T11:13:25;4.78;;;3.50;;
21162;SDS011;10739;52.198;20.908;2023-06-26T11:15:52;5.82;;;3.65;;
21162;SDS011;10739;52.198;20.908;2023-06-26T11:18:22;4.85;;;3.33;;
21162;SDS011;10739;52.198;20.908;2023-06-26T11:20:49;7.90;;;3.80;;
21162;SDS011;10739;52.198;20.908;2023-06-26T11:23:15;4.15;;;3.25;;
21162;SDS011;10739;52.198;20.908;2023-06-26T11:25:49;7.22;;;3.95;;
21162;SDS011;10739;52.198;20.908;2023-06-26T11:28:15;5.47;;;3.40;;
21162;SDS011;10739;52.198;20.908;2023-06-26T11:30:41;9.73;;;3.78;;
21162;SDS011;10739;52.198;20.908;2023-06-26T11:33:08;5.07;;;3.60;;
21162;SDS011;10739;52.198;20.908;2023-06-26T11:35:35;5.35;;;3.78;;
21162;SDS011;10739;52.198;20.908;2023-06-26T11:38:02;5.78;;;3.63;;
21162;SDS011;10739;52.198;20.908;2023-06-26T11:40:33;4.85;;;3.33;;
21162;SDS011;10739;52.198;20.908;2023-06-26T11:43:02;4.60;;;3.63;;
21162;SDS011;10739;52.198;20.908;2023-06-26T11:45:29;4.22;;;3.60;;
21162;SDS011;10739;52.198;20.908;2023-06-26T11:47:57;10.00;;;3.33;;
21162;SDS011;10739;52.198;20.908;2023-06-26T11:50:24;5.38;;;3.40;;
21162;SDS011;10739;52.198;20.908;2023-06-26T11:52:54;7.00;;;3.30;;
21162;SDS011;10739;52.198;20.908;2023-06-26T11:55:23;3.53;;;3.20;;
21162;SDS011;10739;52.198;20.908;2023-06-26T11:57:52;5.60;;;3.35;;
21162;SDS011;10739;52.198;20.908;2023-06-26T12:00:20;5.20;;;3.17;;
21162;SDS011;10739;52.198;20.908;2023-06-26T12:02:47;4.43;;;3.22;;
21162;SDS011;10739;52.198;20.908;2023-06-26T12:05:15;3.90;;;3.30;;
21162;SDS011;10739;52.198;20.908;2023-06-26T12:07:42;5.30;;;3.53;;
21162;SDS011;10739;52.198;20.908;2023-06-26T12:10:12;4.40;;;3.22;;
21162;SDS011;10739;52.198;20.908;2023-06-26T12:12:41;3.13;;;2.85;;
21162;SDS011;10739;52.198;20.908;2023-06-26T12:15:07;3.42;;;2.97;;
21162;SDS011;10739;52.198;20.908;2023-06-26T12:17:39;5.25;;;3.20;;
21162;SDS011;10739;52.198;20.908;2023-06-26T12:20:06;5.50;;;3.33;;
21162;SDS011;10739;52.198;20.908;2023-06-26T12:22:47;4.18;;;3.20;;
21162;SDS011;10739;52.198;20.908;2023-06-26T12:25:14;6.55;;;3.17;;
21162;SDS011;10739;52.198;20.908;2023-06-26T12:27:41;8.60;;;3.25;;
21162;SDS011;10739;52.198;20.908;2023-06-26T12:30:11;6.03;;;3.15;;
21162;SDS011;10739;52.198;20.908;2023-06-26T12:32:37;4.15;;;3.15;;
21162;SDS011;10739;52.198;20.908;2023-06-26T12:35:04;5.18;;;3.75;;
21162;SDS011;10739;52.198;20.908;2023-06-26T12:37:31;6.85;;;3.03;;
21162;SDS011;10739;52.198;20.908;2023-06-26T12:40:15;4.78;;;3.33;;
21162;SDS011;10739;52.198;20.908;2023-06-26T12:42:50;8.20;;;3.30;;
21162;SDS011;10739;52.198;20.908;2023-06-26T12:45:18;5.95;;;2.80;;
21162;SDS011;10739;52.198;20.908;2023-06-26T12:47:45;7.32;;;3.70;;
21162;SDS011;10739;52.198;20.908;2023-06-26T12:50:11;4.40;;;3.00;;
21162;SDS011;10739;52.198;20.908;2023-06-26T12:52:37;5.32;;;3.35;;
21162;SDS011;10739;52.198;20.908;2023-06-26T12:55:04;5.68;;;3.67;;
21162;SDS011;10739;52.198;20.908;2023-06-26T12:57:31;5.15;;;3.05;;
21162;SDS011;10739;52.198;20.908;2023-06-26T12:59:57;6.35;;;3.95;;
21162;SDS011;10739;52.198;20.908;2023-06-26T13:02:24;4.43;;;3.40;;
21162;SDS011;10739;52.198;20.908;2023-06-26T13:04:51;3.60;;;3.30;;
21162;SDS011;10739;52.198;20.908;2023-06-26T13:07:17;4.68;;;3.03;;
21162;SDS011;10739;52.198;20.908;2023-06-26T13:09:43;3.70;;;3.15;;
21162;SDS011;10739;52.198;20.908;2023-06-26T13:12:11;6.28;;;3.47;;
21162;SDS011;10739;52.198;20.908;2023-06-26T13:14:37;5.53;;;3.13;;
21162;SDS011;10739;52.198;20.908;2023-06-26T13:17:03;4.45;;;2.83;;
21162;SDS011;10739;52.198;20.908;2023-06-26T13:19:30;5.00;;;3.00;;
21162;SDS011;10739;52.198;20.908;2023-06-26T13:21:57;3.30;;;3.00;;
21162;SDS011;10739;52.198;20.908;2023-06-26T13:24:23;3.40;;;3.03;;
21162;SDS011;10739;52.198;20.908;2023-06-26T13:26:50;8.25;;;2.92;;
21162;SDS011;10739;52.198;20.908;2023-06-26T13:29:17;8.20;;;3.58;;
21162;SDS011;10739;52.198;20.908;2023-06-26T13:31:43;5.57;;;3.20;;
21162;SDS011;10739;52.198;20.908;2023-06-26T13:34:09;4.60;;;3.30;;
21162;SDS011;10739;52.198;20.908;2023-06-26T13:36:50;4.47;;;3.30;;
21162;SDS011;10739;52.198;20.908;2023-06-26T13:39:17;10.98;;;3.17;;
21162;SDS011;10739;52.198;20.908;2023-06-26T13:41:44;5.50;;;3.30;;
21162;SDS011;10739;52.198;20.908;2023-06-26T13:44:11;6.45;;;3.20;;
21162;SDS011;10739;52.198;20.908;2023-06-26T13:46:37;5.97;;;3.03;;
21162;SDS011;10739;52.198;20.908;2023-06-26T13:49:03;4.30;;;3.50;;
21162;SDS011;10739;52.198;20.908;2023-06-26T13:51:29;5.53;;;3.53;;
21162;SDS011;10739;52.198;20.908;2023-06-26T13:53:55;12.63;;;4.25;;
21162;SDS011;10739;52.198;20.908;2023-06-26T13:56:25;7.45;;;4.20;;
21162;SDS011;10739;52.198;20.908;2023-06-26T13:58:53;7.00;;;3.38;;
21162;SDS011;10739;52.198;20.908;2023-06-26T14:01:19;6.68;;;3.47;;
21162;SDS011;10739;52.198;20.908;2023-06-26T14:03:45;4.90;;;3.20;;
21162;SDS011;10739;52.198;20.908;2023-06-26T14:06:11;5.90;;;3.80;;
21162;SDS011;10739;52.198;20.908;2023-06-26T14:08:38;6.97;;;3.47;;
21162;SDS011;10739;52.198;20.908;2023-06-26T14:11:04;5.95;;;3.50;;
21162;SDS011;10739;52.198;20.908;2023-06-26T14:13:30;5.55;;;3.47;;
21162;SDS011;10739;52.198;20.908;2023-06-26T14:15:56;3.58;;;3.25;;
21162;SDS011;10739;52.198;20.908;2023-06-26T14:18:23;4.45;;;3.30;;
21162;SDS011;10739;52.198;20.908;2023-06-26T14:20:49;4.25;;;3.38;;
21162;SDS011;10739;52.198;20.908;2023-06-26T14:23:15;4.05;;;3.25;;
21162;SDS011;10739;52.198;20.908;2023-06-26T14:25:41;3.75;;;3.13;;
21162;SDS011;10739;52.198;20.908;2023-06-26T14:28:07;4.25;;;3.38;;
21162;SDS011;10739;52.198;20.908;2023-06-26T14:30:33;4.45;;;3.38;;
21162;SDS011;10739;52.198;20.908;2023-06-26T14:33:00;5.55;;;3.42;;